Time;durP1;ratioP1;P1;durP2;ratioP2;P2;SDS_P1;SDS_P2;PMS_P1;PMS_P2;Temp;Humidity;BMP_temperature;BMP_pressure;BME280_temperature;BME280_humidity;BME280_pressure;Samples;Min_cycle;Max_cycle;Signal;HPM_P1;HPM_P2
2022/02/06 13:23:30;;;;;;;8.60;6.82;;;;;;;-7.70;88.54;98784.91;4999044;28;20057;-67
2022/02/06 13:38:43;;;;;;;27.83;16.58;;;;;;;-7.67;89.13;98797.56;5010183;28;20081;-66
2022/02/06 13:41:13;;;;;;;9.13;8.23;;;;;;;-7.64;89.21;98794.19;4996944;28;20046;-66
2022/02/06 13:43:40;;;;;;;10.50;9.23;;;;;;;-7.68;89.22;98793.34;5009762;28;20046;-65
2022/02/06 13:46:14;;;;;;;13.05;11.02;;;;;;;-7.61;89.61;98800.09;5008432;28;20048;-65
2022/02/06 13:48:40;;;;;;;13.40;8.75;;;;;;;-7.63;89.70;98796.75;5014699;28;20058;-66
2022/02/06 13:51:09;;;;;;;12.43;9.23;;;;;;;-7.59;89.89;98795.88;4997311;28;20457;-66
2022/02/06 13:53:36;;;;;;;11.07;9.38;;;;;;;-7.60;89.07;98796.75;5001664;28;20066;-66
2022/02/06 13:56:06;;;;;;;15.55;11.40;;;;;;;-7.58;89.60;98786.59;4998864;28;20049;-65
2022/02/06 13:58:33;;;;;;;12.38;9.80;;;;;;;-7.59;89.04;98797.59;5000779;28;20053;-68
2022/02/06 14:01:05;;;;;;;16.25;10.73;;;;;;;-7.61;89.75;98797.56;5012266;28;20582;-67
2022/02/06 14:03:45;;;;;;;19.02;13.63;;;;;;;-7.60;89.89;98806.88;5011850;28;20046;-67
2022/02/06 14:06:12;;;;;;;23.63;12.27;;;;;;;-7.58;89.68;98804.31;5011846;28;20054;-67
2022/02/06 14:08:39;;;;;;;23.98;9.45;;;;;;;-7.62;89.25;98806.00;5011778;28;20076;-68
2022/02/06 14:11:15;;;;;;;11.88;6.93;;;;;;;-7.63;89.77;98806.88;4996185;28;20041;-67
2022/02/06 14:13:41;;;;;;;19.42;11.75;;;;;;;-7.61;90.28;98806.84;5013031;28;20046;-67
2022/02/06 14:16:12;;;;;;;17.25;11.05;;;;;;;-7.66;89.79;98806.88;5013997;28;20056;-67
2022/02/06 14:18:48;;;;;;;17.77;11.50;;;;;;;-7.63;89.45;98818.69;5011398;28;20057;-67
2022/02/06 14:21:14;;;;;;;12.85;9.30;;;;;;;-7.56;90.02;98822.91;5014005;28;20046;-67
2022/02/06 14:23:42;;;;;;;6.70;6.20;;;;;;;-7.62;90.04;98821.19;5033209;28;20045;-66
2022/02/06 14:26:15;;;;;;;17.58;13.05;;;;;;;-7.62;89.47;98827.94;5025031;28;20045;-67
2022/02/06 14:28:50;;;;;;;19.77;12.40;;;;;;;-7.59;89.96;98821.19;5027245;28;20421;-67
2022/02/06 14:31:27;;;;;;;11.48;8.18;;;;;;;-7.58;90.35;98822.06;5002655;28;20700;-67
2022/02/06 14:34:13;;;;;;;15.23;9.63;;;;;;;-7.60;90.23;98822.06;5011917;28;20060;-67
2022/02/06 14:36:40;;;;;;;16.80;11.80;;;;;;;-7.66;89.97;98832.19;5003359;28;20052;-67
2022/02/06 14:39:06;;;;;;;11.60;8.43;;;;;;;-7.71;90.40;98823.75;5003869;28;20049;-67
2022/02/06 14:41:48;;;;;;;11.48;10.20;;;;;;;-7.69;90.62;98819.50;5015289;28;20123;-68
2022/02/06 14:44:15;;;;;;;15.45;10.55;;;;;;;-7.70;89.97;98825.44;5012190;28;20120;-67
2022/02/06 14:46:41;;;;;;;5.65;5.22;;;;;;;-7.69;90.60;98827.09;5011265;28;20130;-68
2022/02/06 14:49:09;;;;;;;25.35;12.98;;;;;;;-7.62;90.18;98833.03;5019839;28;20518;-68
2022/02/06 14:51:36;;;;;;;13.80;9.65;;;;;;;-7.71;90.67;98828.81;5010335;28;20132;-66
2022/02/06 14:54:05;;;;;;;8.18;7.45;;;;;;;-7.65;90.17;98836.41;4999364;28;20406;-67
2022/02/06 14:56:33;;;;;;;16.15;9.18;;;;;;;-7.64;90.60;98835.56;5011323;28;20049;-67
2022/02/06 14:58:59;;;;;;;20.67;13.27;;;;;;;-7.66;90.47;98847.41;5018852;28;20046;-66
2022/02/06 15:01:26;;;;;;;14.10;10.88;;;;;;;-7.66;90.54;98846.53;5012318;28;20062;-67
2022/02/06 15:03:52;;;;;;;9.80;8.32;;;;;;;-7.67;90.54;98850.75;4995870;28;20054;-67
2022/02/06 15:06:18;;;;;;;23.17;12.88;;;;;;;-7.69;90.95;98841.47;5010374;28;20469;-67
2022/02/06 15:08:44;;;;;;;34.67;17.60;;;;;;;-7.63;90.98;98846.53;4993416;28;20065;-67
2022/02/06 15:11:10;;;;;;;7.85;6.13;;;;;;;-7.61;91.00;98839.78;4999456;28;20049;-67
2022/02/06 15:13:36;;;;;;;13.48;8.50;;;;;;;-7.59;91.14;98846.53;5001628;28;20123;-67
2022/02/06 15:16:13;;;;;;;9.07;8.18;;;;;;;-7.62;90.72;98848.22;5022969;28;20481;-67
2022/02/06 15:18:45;;;;;;;8.00;7.18;;;;;;;-7.61;90.46;98844.84;4989901;28;20046;-67
2022/02/06 15:21:11;;;;;;;22.45;11.80;;;;;;;-7.61;90.80;98843.16;4990476;28;20061;-67
2022/02/06 15:23:38;;;;;;;15.18;10.10;;;;;;;-7.56;91.56;98853.31;4990193;28;20055;-67
2022/02/06 15:26:04;;;;;;;27.95;14.93;;;;;;;-7.57;91.33;98851.63;4990844;28;20124;-68
2022/02/06 15:28:31;;;;;;;9.52;8.52;;;;;;;-7.56;91.97;98853.31;4989077;28;20112;-67
2022/02/06 15:30:57;;;;;;;12.93;11.23;;;;;;;-7.60;90.85;98849.94;4990038;28;20076;-67
2022/02/06 15:33:24;;;;;;;14.02;10.18;;;;;;;-7.57;91.06;98862.59;4974769;28;20529;-67
2022/02/06 15:35:51;;;;;;;10.85;8.25;;;;;;;-7.55;91.36;98853.28;4990399;28;20502;-67
2022/02/06 15:38:18;;;;;;;21.00;11.60;;;;;;;-7.56;91.46;98858.38;4990361;28;20144;-67
2022/02/06 15:40:45;;;;;;;20.55;14.00;;;;;;;-7.56;91.73;98856.66;4972915;28;20046;-67
2022/02/06 15:43:11;;;;;;;14.55;10.65;;;;;;;-7.58;91.19;98849.91;4990334;28;20073;-67
2022/02/06 15:45:39;;;;;;;14.13;10.60;;;;;;;-7.51;91.47;98852.47;4990695;28;20060;-67
2022/02/06 15:48:09;;;;;;;17.00;6.95;;;;;;;-7.53;91.68;98859.22;4990622;28;20103;-67
2022/02/06 15:50:36;;;;;;;21.83;14.60;;;;;;;-7.52;91.87;98865.97;4989633;28;20426;-67
2022/02/06 15:53:02;;;;;;;20.80;12.57;;;;;;;-7.52;91.98;98860.06;4973134;28;20050;-67
2022/02/06 15:55:28;;;;;;;12.15;9.52;;;;;;;-7.56;91.98;98860.91;4989907;28;20470;-67
2022/02/06 15:57:54;;;;;;;17.65;11.25;;;;;;;-7.51;91.72;98865.13;4975533;28;20049;-67
2022/02/06 16:00:20;;;;;;;9.07;7.40;;;;;;;-7.51;91.51;98851.63;4989729;28;20050;-67
2022/02/06 16:02:46;;;;;;;10.68;8.65;;;;;;;-7.50;91.54;98850.78;4982464;28;20073;-67
2022/02/06 16:05:13;;;;;;;30.60;15.48;;;;;;;-7.46;91.32;98847.41;4988939;28;20291;-67
2022/02/06 16:07:40;;;;;;;29.23;15.52;;;;;;;-7.43;91.42;98849.94;4989044;28;20046;-66
2022/02/06 16:10:06;;;;;;;8.35;7.47;;;;;;;-7.44;91.76;98844.03;4989371;28;20537;-67
2022/02/06 16:12:32;;;;;;;22.25;13.60;;;;;;;-7.44;92.05;98845.72;4988629;28;20130;-68
2022/02/06 16:14:58;;;;;;;15.38;10.45;;;;;;;-7.39;92.15;98844.84;4983246;28;20042;-67
2022/02/06 16:17:24;;;;;;;10.40;7.88;;;;;;;-7.39;91.34;98849.94;5002964;28;20054;-67
2022/02/06 16:19:50;;;;;;;11.35;8.77;;;;;;;-7.35;91.60;98852.47;5021763;28;20049;-68
2022/02/06 16:22:16;;;;;;;10.05;8.25;;;;;;;-7.34;92.01;98849.09;5008067;28;20088;-67
2022/02/06 16:24:43;;;;;;;8.50;7.25;;;;;;;-7.34;91.61;98854.16;5010403;28;20064;-67
2022/02/06 16:27:10;;;;;;;16.45;10.95;;;;;;;-7.35;91.71;98852.47;5018988;28;20041;-67
2022/02/06 16:29:36;;;;;;;11.80;9.13;;;;;;;-7.32;91.92;98852.44;5012836;28;20053;-68
2022/02/06 16:32:04;;;;;;;14.38;9.35;;;;;;;-7.35;91.55;98853.31;5015790;28;20096;-67
2022/02/06 16:34:30;;;;;;;10.35;9.13;;;;;;;-7.31;91.45;98854.16;5015205;28;20058;-67
2022/02/06 16:36:56;;;;;;;18.48;11.82;;;;;;;-7.31;91.88;98849.09;5016784;28;20427;-68
2022/02/06 16:39:25;;;;;;;10.82;9.27;;;;;;;-7.34;91.74;98847.41;4975235;28;20050;-68
2022/02/06 16:41:52;;;;;;;21.55;12.48;;;;;;;-7.34;92.75;98869.34;4968966;28;20128;-68
2022/02/06 16:44:18;;;;;;;51.28;22.60;;;;;;;-7.28;92.40;98874.44;5000211;28;20049;-68
2022/02/06 16:46:44;;;;;;;13.90;9.63;;;;;;;-7.23;93.01;98862.63;5001245;28;20160;-68
2022/02/06 16:49:10;;;;;;;46.22;23.45;;;;;;;-7.22;92.60;98879.50;4996990;28;20050;-67
2022/02/06 16:51:37;;;;;;;26.58;10.95;;;;;;;-7.25;92.71;98861.75;4995119;28;20052;-67
2022/02/06 16:54:03;;;;;;;40.75;20.35;;;;;;;-7.24;93.10;98868.53;4993987;28;20053;-67
2022/02/06 16:56:31;;;;;;;44.22;20.00;;;;;;;-7.20;92.47;98866.00;4993874;28;20426;-69
2022/02/06 16:58:58;;;;;;;16.35;10.55;;;;;;;-7.23;93.03;98868.50;4984460;28;20501;-66
2022/02/06 17:01:24;;;;;;;26.23;15.25;;;;;;;-7.28;92.68;98856.69;4998337;28;20700;-67
2022/02/06 17:03:50;;;;;;;17.90;12.25;;;;;;;-7.29;92.07;98849.91;4998600;28;20492;-67
2022/02/06 17:06:16;;;;;;;18.00;11.88;;;;;;;-7.25;92.41;98846.53;5000394;28;20137;-67
2022/02/06 17:08:44;;;;;;;9.00;8.10;;;;;;;-7.28;91.76;98851.63;4997131;28;20384;-67
2022/02/06 17:11:10;;;;;;;19.85;12.30;;;;;;;-7.25;92.15;98851.63;4988251;28;20073;-67
2022/02/06 17:13:36;;;;;;;21.38;13.93;;;;;;;-7.30;91.88;98840.66;4982445;28;20058;-67
2022/02/06 17:16:03;;;;;;;21.83;14.57;;;;;;;-7.20;91.75;98860.94;5008196;28;20060;-69
2022/02/06 17:18:30;;;;;;;27.42;17.33;;;;;;;-7.23;91.24;98863.44;5003416;28;20439;-68
2022/02/06 17:20:56;;;;;;;25.08;15.50;;;;;;;-7.16;92.04;98882.03;4984847;28;20191;-69
2022/02/06 17:23:22;;;;;;;18.10;11.68;;;;;;;-7.11;91.39;98880.34;5000554;28;20055;-67
2022/02/06 17:25:48;;;;;;;32.42;18.83;;;;;;;-7.08;91.92;98877.81;4987861;28;20038;-68
2022/02/06 17:28:14;;;;;;;9.00;7.95;;;;;;;-7.09;91.93;98881.19;4998555;28;20116;-68
2022/02/06 17:30:40;;;;;;;36.08;17.33;;;;;;;-7.06;91.88;98876.94;5001116;28;20050;-68
2022/02/06 17:33:06;;;;;;;64.18;28.67;;;;;;;-7.03;91.42;98871.03;4985473;28;20043;-67
2022/02/06 17:35:34;;;;;;;31.98;16.73;;;;;;;-7.04;91.80;98865.13;5001092;28;20053;-68
2022/02/06 17:38:00;;;;;;;20.50;11.43;;;;;;;-7.08;91.22;98877.81;5000834;28;20668;-69
2022/02/06 17:40:26;;;;;;;46.53;21.80;;;;;;;-7.03;91.82;98884.56;4995840;28;20109;-68
2022/02/06 17:42:54;;;;;;;30.35;15.32;;;;;;;-7.07;91.78;98874.44;4972711;28;20051;-69
2022/02/06 17:45:26;;;;;;;50.17;21.20;;;;;;;-7.11;91.25;98880.34;4997306;28;20066;-68
2022/02/06 17:47:53;;;;;;;46.10;22.67;;;;;;;-7.03;92.29;98883.69;4998817;28;20135;-68
2022/02/06 17:50:20;;;;;;;38.05;21.73;;;;;;;-7.02;91.48;98880.34;4999598;28;20085;-68
2022/02/06 17:52:46;;;;;;;42.33;20.63;;;;;;;-7.04;91.90;98880.34;5001388;28;20038;-69
2022/02/06 17:55:12;;;;;;;20.95;13.20;;;;;;;-7.07;91.67;98869.38;4998101;28;20104;-68
2022/02/06 17:57:38;;;;;;;22.85;9.95;;;;;;;-7.11;91.30;98872.75;4998422;28;20053;-68
2022/02/06 18:00:06;;;;;;;19.70;11.93;;;;;;;-7.05;91.59;98867.66;4997511;28;20151;-69
2022/02/06 18:02:38;;;;;;;15.25;11.90;;;;;;;-7.05;91.51;98871.03;5000462;28;20390;-67
2022/02/06 18:05:05;;;;;;;13.32;10.38;;;;;;;-7.04;92.05;98869.34;5001651;28;20116;-69
2022/02/06 18:07:31;;;;;;;15.98;10.05;;;;;;;-7.00;91.85;98876.94;4997757;28;20038;-67
2022/02/06 18:09:58;;;;;;;34.88;15.90;;;;;;;-6.93;91.95;98883.69;5004704;28;20050;-68
2022/02/06 18:12:25;;;;;;;16.08;10.27;;;;;;;-6.94;91.75;98876.97;5000913;28;20046;-69
2022/02/06 18:14:52;;;;;;;32.83;17.17;;;;;;;-6.89;92.00;98879.47;4994729;28;20051;-68
2022/02/06 18:17:20;;;;;;;29.35;17.95;;;;;;;-6.88;91.55;98871.88;4983351;28;20046;-69
2022/02/06 18:19:50;;;;;;;24.13;11.25;;;;;;;-6.82;91.19;98860.03;4973095;28;20042;-69
2022/02/06 18:22:16;;;;;;;28.42;14.45;;;;;;;-6.84;92.04;98862.56;4948667;28;20564;-70
2022/02/06 18:24:42;;;;;;;8.55;6.05;;;;;;;-6.82;91.87;98867.63;5000703;28;20056;-68
2022/02/06 18:27:08;;;;;;;42.15;21.65;;;;;;;-6.79;91.31;98860.00;4995322;28;20073;-68
2022/02/06 18:29:47;;;;;;;16.00;10.80;;;;;;;-6.83;91.49;98864.25;4985976;28;20207;-69
2022/02/06 18:32:14;;;;;;;10.55;8.98;;;;;;;-6.81;91.32;98862.56;5002422;28;20148;-68
2022/02/06 18:34:41;;;;;;;15.27;10.85;;;;;;;-6.82;91.73;98860.88;4984826;28;20196;-68
2022/02/06 18:37:07;;;;;;;34.70;17.45;;;;;;;-6.87;91.51;98863.41;4997647;28;20141;-68
2022/02/06 18:39:33;;;;;;;26.30;11.13;;;;;;;-6.95;91.68;98849.06;4976497;28;20136;-69
2022/02/06 18:42:01;;;;;;;16.20;10.13;;;;;;;-6.94;91.79;98861.75;5001571;28;20533;-68
2022/02/06 18:44:29;;;;;;;16.95;10.13;;;;;;;-6.93;91.68;98847.34;4982644;28;20074;-69
2022/02/06 18:46:56;;;;;;;24.73;14.52;;;;;;;-6.96;91.42;98847.34;4997631;28;20510;-70
2022/02/06 18:49:22;;;;;;;13.18;10.70;;;;;;;-6.90;92.38;98860.03;4994882;28;20624;-71
2022/02/06 18:51:49;;;;;;;9.73;7.53;;;;;;;-6.85;91.96;98853.25;5002038;28;20185;-70
2022/02/06 18:54:22;;;;;;;23.80;12.25;;;;;;;-6.83;91.89;98854.09;4997452;28;20050;-70
2022/02/06 18:56:48;;;;;;;10.32;8.68;;;;;;;-6.80;91.52;98849.00;5000197;28;20043;-70
2022/02/06 18:59:22;;;;;;;15.85;11.23;;;;;;;-6.80;92.31;98849.00;4984376;28;20398;-70
2022/02/06 19:01:50;;;;;;;12.82;9.20;;;;;;;-6.76;91.97;98849.84;4992889;28;20422;-70
2022/02/06 19:04:17;;;;;;;17.23;11.80;;;;;;;-6.86;91.43;98832.13;4985551;28;20081;-71
2022/02/06 19:06:43;;;;;;;12.63;8.38;;;;;;;-6.80;90.97;98846.47;4973356;28;20112;-70
2022/02/06 19:09:12;;;;;;;27.30;16.02;;;;;;;-6.86;91.61;98859.19;5000878;28;20045;-70
2022/02/06 19:11:38;;;;;;;17.15;11.70;;;;;;;-6.84;91.11;98852.44;4999747;28;20473;-69
2022/02/06 19:14:04;;;;;;;14.43;9.93;;;;;;;-6.87;91.43;98847.34;5003950;28;20069;-72
2022/02/06 19:16:31;;;;;;;23.88;12.82;;;;;;;-6.87;91.89;98843.09;4978573;28;20522;-69
2022/02/06 19:18:57;;;;;;;17.20;11.27;;;;;;;-6.82;91.59;98840.56;4980017;28;20548;-71
2022/02/06 19:21:24;;;;;;;35.63;17.23;;;;;;;-6.79;92.01;98834.66;4999074;28;20615;-70
2022/02/06 19:23:50;;;;;;;37.35;16.90;;;;;;;-6.67;91.84;98840.53;4998604;28;20518;-70
2022/02/06 19:26:16;;;;;;;20.27;11.25;;;;;;;-6.68;91.98;98843.09;4965924;28;20576;-69
2022/02/06 19:28:43;;;;;;;23.23;13.93;;;;;;;-6.66;91.32;98857.44;4996048;28;20050;-70
2022/02/06 19:31:13;;;;;;;53.30;24.98;;;;;;;-6.61;91.85;98870.94;4996061;28;20050;-69
2022/02/06 19:33:40;;;;;;;62.20;26.58;;;;;;;-6.58;91.95;98870.97;4996578;28;20100;-69
2022/02/06 19:36:13;;;;;;;52.60;21.98;;;;;;;-6.63;91.41;98857.44;4998024;28;20584;-71
2022/02/06 19:38:39;;;;;;;29.73;15.60;;;;;;;-6.67;91.03;98853.22;4995009;28;20670;-69
2022/02/06 19:41:07;;;;;;;6.68;5.28;;;;;;;-6.72;91.47;98849.84;4981889;28;20108;-70
2022/02/06 19:43:33;;;;;;;7.57;6.10;;;;;;;-6.63;91.83;98851.50;4995015;28;20058;-70
2022/02/06 19:46:00;;;;;;;23.30;13.73;;;;;;;-6.68;91.84;98833.78;4962227;28;20482;-69
2022/02/06 19:48:26;;;;;;;20.73;14.00;;;;;;;-6.68;92.17;98833.78;4996290;28;20148;-70
2022/02/06 19:50:54;;;;;;;26.13;14.05;;;;;;;-6.69;91.89;98839.69;4997898;28;20112;-69
2022/02/06 19:53:20;;;;;;;23.45;12.18;;;;;;;-6.67;91.18;98838.00;4995564;28;20042;-67
2022/02/06 19:55:47;;;;;;;15.05;10.20;;;;;;;-6.61;91.33;98832.88;5001024;28;20046;-69
2022/02/06 19:58:13;;;;;;;19.35;11.57;;;;;;;-6.49;92.22;98834.56;4997784;28;20046;-69
2022/02/06 20:00:39;;;;;;;27.60;14.77;;;;;;;-6.43;91.74;98820.16;4982412;28;20052;-69
2022/02/06 20:03:05;;;;;;;17.75;10.43;;;;;;;-6.28;92.25;98831.91;4996835;28;20104;-69
2022/02/06 20:05:31;;;;;;;23.67;11.73;;;;;;;-6.28;92.14;98844.59;4979229;28;20058;-68
2022/02/06 20:07:57;;;;;;;29.02;15.90;;;;;;;-6.25;92.43;98853.94;4998352;28;20522;-69
2022/02/06 20:10:23;;;;;;;49.92;19.77;;;;;;;-6.25;91.85;98848.84;4997795;28;20108;-68
2022/02/06 20:12:49;;;;;;;14.68;9.27;;;;;;;-6.21;92.13;98842.88;4999931;28;20125;-69
2022/02/06 20:15:16;;;;;;;31.83;15.13;;;;;;;-6.25;92.36;98828.53;5000554;28;20049;-68
2022/02/06 20:17:43;;;;;;;32.00;15.60;;;;;;;-6.30;91.86;98850.56;4997421;28;20074;-68
2022/02/06 20:20:10;;;;;;;34.30;17.38;;;;;;;-6.32;92.34;98847.19;5000116;28;20073;-69
2022/02/06 20:22:37;;;;;;;52.20;24.00;;;;;;;-6.28;92.10;98864.09;4986782;28;20053;-69
2022/02/06 20:25:04;;;;;;;54.67;24.80;;;;;;;-6.24;91.69;98870.84;5002560;28;20561;-70
2022/02/06 20:27:30;;;;;;;47.03;19.30;;;;;;;-6.21;92.18;98870.81;5003019;28;20542;-69
2022/02/06 20:29:58;;;;;;;27.73;12.77;;;;;;;-6.23;91.72;98847.13;5004261;28;20403;-69
2022/02/06 20:32:25;;;;;;;50.67;22.30;;;;;;;-6.24;91.52;98850.53;5005853;28;20046;-69
2022/02/06 20:34:52;;;;;;;38.13;17.92;;;;;;;-6.26;92.08;98837.84;4998100;28;20065;-70
2022/02/06 20:37:18;;;;;;;21.58;12.48;;;;;;;-6.31;91.92;98831.13;4996972;28;20037;-69
2022/02/06 20:39:44;;;;;;;21.17;12.57;;;;;;;-6.27;91.71;98825.16;4993205;28;20046;-69
2022/02/06 20:42:10;;;;;;;23.88;13.55;;;;;;;-6.33;92.66;98815.88;4979177;28;20037;-69
2022/02/06 20:44:38;;;;;;;20.00;12.88;;;;;;;-6.35;92.64;98812.50;4987004;28;20096;-70
2022/02/06 20:47:07;;;;;;;21.73;12.07;;;;;;;-6.32;92.66;98821.81;5007299;28;20046;-70
2022/02/06 20:49:33;;;;;;;30.02;16.33;;;;;;;-6.24;92.52;98845.44;4990120;28;20049;-70
2022/02/06 20:52:00;;;;;;;29.65;15.20;;;;;;;-6.18;92.63;98843.72;5007489;28;20042;-70
2022/02/06 20:54:27;;;;;;;9.82;7.10;;;;;;;-6.16;92.33;98828.50;4989541;28;20048;-69
2022/02/06 20:56:53;;;;;;;34.50;18.45;;;;;;;-6.15;92.36;98820.84;4999098;28;20046;-69
2022/02/06 20:59:20;;;;;;;35.90;18.70;;;;;;;-6.17;92.19;98811.56;5005678;28;20065;-69
2022/02/06 21:01:46;;;;;;;22.85;13.40;;;;;;;-6.13;92.18;98821.72;4997862;28;20052;-70
2022/02/06 21:04:14;;;;;;;28.05;15.13;;;;;;;-6.13;92.05;98823.41;4970478;28;20073;-69
2022/02/06 21:06:40;;;;;;;18.20;11.25;;;;;;;-6.13;92.13;98834.41;4998303;28;20048;-68
2022/02/06 21:09:15;;;;;;;20.25;10.65;;;;;;;-6.19;92.46;98833.59;5007765;28;20050;-69
2022/02/06 21:11:41;;;;;;;38.65;18.13;;;;;;;-6.18;91.94;98825.13;5008545;28;20168;-70
2022/02/06 21:14:07;;;;;;;29.73;16.13;;;;;;;-6.22;92.16;98826.00;4993282;28;20057;-69
2022/02/06 21:16:34;;;;;;;17.70;9.80;;;;;;;-6.22;92.39;98820.91;4991160;28;20053;-70
2022/02/06 21:19:00;;;;;;;37.17;14.00;;;;;;;-6.25;92.30;98815.84;5006594;28;20053;-69
2022/02/06 21:21:26;;;;;;;33.83;14.50;;;;;;;-6.20;92.65;98817.50;5010772;28;20077;-69
2022/02/06 21:23:52;;;;;;;24.40;12.50;;;;;;;-6.13;92.53;98814.09;4992977;28;20124;-68
2022/02/06 21:26:18;;;;;;;44.20;20.75;;;;;;;-6.09;92.71;98825.94;4992276;28;20465;-70
2022/02/06 21:28:44;;;;;;;43.70;18.83;;;;;;;-6.03;92.17;98827.59;4992247;28;20049;-70
2022/02/06 21:31:10;;;;;;;40.72;19.73;;;;;;;-6.01;92.45;98823.31;4970959;28;20050;-70
2022/02/06 21:33:37;;;;;;;13.88;10.20;;;;;;;-6.04;92.25;98814.03;5002322;28;20052;-70
2022/02/06 21:36:06;;;;;;;12.45;9.75;;;;;;;-6.08;92.52;98816.59;5009191;28;20050;-69
2022/02/06 21:38:34;;;;;;;24.98;14.45;;;;;;;-6.05;92.50;98809.78;5003495;28;20058;-68
2022/02/06 21:41:00;;;;;;;18.52;10.55;;;;;;;-6.04;92.73;98815.72;4990547;28;20568;-67
2022/02/06 21:43:27;;;;;;;20.25;11.50;;;;;;;-6.00;92.96;98809.78;4988912;28;20088;-69
2022/02/06 21:45:53;;;;;;;22.67;13.43;;;;;;;-5.97;92.93;98814.84;4971401;28;20581;-68
2022/02/06 21:48:19;;;;;;;20.50;10.10;;;;;;;-5.91;93.18;98807.19;4988136;28;20058;-69
2022/02/06 21:50:45;;;;;;;30.88;14.75;;;;;;;-5.91;92.83;98813.09;4975070;28;20583;-70
2022/02/06 21:53:12;;;;;;;35.75;18.85;;;;;;;-5.87;93.21;98813.94;4992532;28;20054;-70
2022/02/06 21:55:38;;;;;;;48.10;21.73;;;;;;;-5.85;92.85;98810.50;4992318;28;20549;-69
2022/02/06 21:58:04;;;;;;;43.45;19.83;;;;;;;-5.86;92.63;98815.63;5006613;28;20064;-69
2022/02/06 22:00:30;;;;;;;21.52;12.07;;;;;;;-5.86;92.55;98813.09;5011815;28;20041;-69
2022/02/06 22:02:57;;;;;;;24.55;13.65;;;;;;;-5.82;93.04;98819.78;5011342;28;20060;-69
2022/02/06 22:05:36;;;;;;;28.60;17.08;;;;;;;-5.87;92.36;98819.00;4977350;28;20054;-69
2022/02/06 22:08:17;;;;;;;17.92;11.88;;;;;;;-5.86;92.62;98802.94;4984128;28;20045;-70
2022/02/06 22:24:24;;;;;;;36.75;19.23;;;;;;;-5.73;92.89;98798.56;4991530;28;20120;-70
2022/02/06 22:29:36;;;;;;;45.45;21.98;;;;;;;-5.60;92.95;98792.53;5011050;28;20042;-70
2022/02/06 22:32:05;;;;;;;31.30;11.20;;;;;;;-5.53;93.33;98795.00;5010009;28;20054;-69
2022/02/06 22:34:31;;;;;;;24.10;13.77;;;;;;;-5.47;93.36;98802.59;5011128;28;20128;-70
2022/02/06 22:36:57;;;;;;;8.38;7.57;;;;;;;-5.51;93.51;98802.63;4977534;28;20058;-70
2022/02/06 22:39:23;;;;;;;21.15;9.77;;;;;;;-5.55;93.10;98794.19;5011119;28;20065;-69
2022/02/06 22:41:50;;;;;;;15.60;9.63;;;;;;;-5.59;93.67;98786.59;4993243;28;20505;-70
2022/02/06 22:44:17;;;;;;;24.73;13.07;;;;;;;-5.51;93.05;98795.00;4993507;28;20049;-69
2022/02/06 22:46:44;;;;;;;20.73;12.02;;;;;;;-5.53;93.52;98799.28;5010939;28;20124;-70
2022/02/06 22:49:10;;;;;;;31.92;15.70;;;;;;;-5.52;93.31;98788.22;5010961;28;20050;-69
2022/02/06 22:51:36;;;;;;;20.98;11.68;;;;;;;-5.52;93.44;98788.22;4993303;28;20046;-69
2022/02/06 22:54:03;;;;;;;27.67;15.70;;;;;;;-5.48;93.35;98788.19;5009334;28;20093;-69
2022/02/06 22:56:31;;;;;;;35.00;18.15;;;;;;;-5.44;93.89;98797.50;4996788;28;20047;-70
2022/02/06 22:58:57;;;;;;;12.65;7.60;;;;;;;-5.50;93.35;98789.94;4990945;28;20062;-70
2022/02/06 23:01:23;;;;;;;21.13;11.07;;;;;;;-5.49;93.59;98799.22;4987343;28;20158;-68
2022/02/06 23:03:49;;;;;;;10.35;7.55;;;;;;;-5.52;93.51;98804.31;4990685;28;20061;-69
2022/02/06 23:06:18;;;;;;;31.85;16.17;;;;;;;-5.49;93.99;98796.66;5006777;28;20038;-70
2022/02/06 23:08:44;;;;;;;17.65;10.55;;;;;;;-5.46;93.27;98795.78;5000027;28;20058;-68
2022/02/06 23:11:12;;;;;;;19.00;9.52;;;;;;;-5.44;93.91;98794.94;4980148;28;20103;-70
2022/02/06 23:13:38;;;;;;;21.10;10.35;;;;;;;-5.38;93.83;98787.28;5009392;28;20207;-70
2022/02/06 23:16:06;;;;;;;50.13;20.73;;;;;;;-5.35;93.89;98782.16;5010494;28;20056;-70
2022/02/06 23:18:32;;;;;;;56.50;23.30;;;;;;;-5.37;94.02;98788.97;5010380;28;20171;-70
2022/02/06 23:20:59;;;;;;;42.95;17.83;;;;;;;-5.18;93.87;98783.69;5010201;28;20053;-69
2022/02/06 23:23:25;;;;;;;22.13;12.93;;;;;;;-5.18;94.56;98782.00;4992765;28;20192;-70
2022/02/06 23:25:51;;;;;;;46.38;17.90;;;;;;;-5.15;93.99;98783.66;5010151;28;20054;-69
2022/02/06 23:28:17;;;;;;;26.60;13.20;;;;;;;-5.14;94.15;98780.28;5010240;28;20048;-69
2022/02/06 23:30:43;;;;;;;45.95;18.77;;;;;;;-5.20;93.76;98782.88;4992418;28;20057;-68
2022/02/06 23:33:14;;;;;;;32.85;14.73;;;;;;;-5.20;94.08;98781.16;5010201;28;20403;-69
2022/02/06 23:35:41;;;;;;;33.35;17.50;;;;;;;-5.18;94.34;98782.00;4976282;28;20046;-69
2022/02/06 23:38:07;;;;;;;18.30;10.25;;;;;;;-5.17;94.30;98785.41;5010251;28;20061;-69
2022/02/06 23:40:33;;;;;;;42.13;17.52;;;;;;;-5.20;93.64;98778.63;5009928;28;20641;-70
2022/02/06 23:42:59;;;;;;;46.33;20.90;;;;;;;-5.20;94.06;98785.44;4991985;28;20167;-69
2022/02/06 23:45:35;;;;;;;14.25;8.50;;;;;;;-5.24;93.59;98791.38;5009886;28;20053;-71
2022/02/06 23:48:02;;;;;;;30.00;13.65;;;;;;;-5.30;93.90;98787.22;5009758;28;20601;-69
2022/02/06 23:50:52;;;;;;;28.33;13.63;;;;;;;-5.28;94.27;98785.50;5009648;28;20050;-69
2022/02/06 23:55:51;;;;;;;9.48;8.40;;;;;;;-5.31;93.92;98788.91;5009574;28;20100;-69
2022/02/06 23:58:28;;;;;;;11.27;9.27;;;;;;;-5.33;93.85;98785.50;4993069;28;20091;-69
